Time;durP1;ratioP1;P1;durP2;ratioP2;P2;SDS_P1;SDS_P2;PMS_P1;PMS_P2;Temp;Humidity;BMP_temperature;BMP_pressure;BME280_temperature;BME280_humidity;BME280_pressure;Samples;Min_cycle;Max_cycle;Signal;HPM_P1;HPM_P2
2022/04/22 00:02:07;;;;;;;8.35;6.13;;;8.00;99.90;;;7.32;100.00;96498.75;5081666;28;20087;-72
2022/04/22 00:04:34;;;;;;;7.78;6.00;;;8.00;99.90;;;7.33;100.00;96498.69;5081715;28;20123;-72
2022/04/22 00:07:02;;;;;;;8.88;6.18;;;8.00;99.90;;;7.27;100.00;96504.13;5083692;28;20513;-72
2022/04/22 00:09:29;;;;;;;9.85;6.38;;;7.90;99.90;;;7.30;100.00;96500.59;5082208;28;20041;-72
2022/04/22 00:11:56;;;;;;;8.18;5.88;;;7.90;99.90;;;7.25;100.00;96505.13;5077285;28;20048;-72
2022/04/22 00:14:23;;;;;;;9.27;6.45;;;7.90;99.90;;;7.26;100.00;96499.91;5083326;28;20051;-72
2022/04/22 00:16:50;;;;;;;9.23;6.70;;;7.90;99.90;;;7.20;100.00;96497.59;5084441;28;20047;-72
2022/04/22 00:19:18;;;;;;;15.90;7.15;;;7.90;99.90;;;7.17;100.00;96496.91;5080653;28;20043;-72
2022/04/22 00:21:47;;;;;;;10.88;7.88;;;7.80;99.90;;;7.07;100.00;96502.50;5081816;28;20066;-72
2022/04/22 00:24:16;;;;;;;9.68;7.68;;;7.80;99.90;;;7.05;100.00;96504.31;5080230;28;20086;-72
2022/04/22 00:26:43;;;;;;;10.60;7.95;;;7.80;99.90;;;7.06;100.00;96500.81;5075577;28;20571;-72
2022/04/22 00:29:11;;;;;;;10.50;7.47;;;7.80;99.90;;;7.06;100.00;96492.25;5081371;28;20133;-72
2022/04/22 00:31:39;;;;;;;12.25;7.85;;;7.80;99.90;;;6.96;100.00;96493.59;5078856;28;20045;-72
2022/04/22 00:34:06;;;;;;;11.75;8.50;;;7.70;99.90;;;6.87;100.00;96500.81;5082941;28;20061;-72
2022/04/22 00:36:33;;;;;;;10.15;8.05;;;7.60;99.90;;;6.91;100.00;96496.34;5081926;28;20070;-72
2022/04/22 00:39:05;;;;;;;12.25;8.38;;;7.60;99.90;;;6.84;100.00;96490.66;5077703;28;20151;-72
2022/04/22 00:41:32;;;;;;;14.07;8.98;;;7.60;99.90;;;6.80;100.00;96493.44;5079709;28;20075;-72
2022/04/22 00:43:59;;;;;;;12.82;9.70;;;7.50;99.90;;;6.78;100.00;96487.50;5077705;28;20047;-72
2022/04/22 00:46:26;;;;;;;12.32;9.52;;;7.50;99.90;;;6.79;100.00;96486.59;5078047;28;20048;-72
2022/04/22 00:48:53;;;;;;;11.90;9.43;;;7.50;99.90;;;6.75;100.00;96483.31;5080806;28;20051;-72
2022/04/22 00:51:22;;;;;;;12.88;9.77;;;7.50;99.90;;;6.77;100.00;96480.66;5076359;28;20349;-72
2022/04/22 00:53:52;;;;;;;13.38;9.80;;;7.50;99.90;;;6.70;100.00;96470.63;5075510;28;20052;-72
2022/04/22 00:56:20;;;;;;;14.85;11.18;;;7.40;99.90;;;6.59;100.00;96461.69;5081642;28;20436;-72
2022/04/22 00:58:50;;;;;;;16.95;10.75;;;7.40;99.90;;;6.64;100.00;96467.50;5078494;28;20045;-72
2022/04/22 01:01:18;;;;;;;12.20;10.23;;;7.30;99.90;;;6.63;100.00;96466.63;5077561;28;20125;-73
2022/04/22 01:12:06;;;;;;;17.45;11.93;;;7.30;99.90;;;6.54;100.00;96472.19;5085346;28;20429;-72
2022/04/22 01:14:34;;;;;;;16.60;11.73;;;7.20;99.90;;;6.53;100.00;96464.56;5082492;28;20044;-72
2022/04/22 01:17:03;;;;;;;16.25;11.55;;;7.20;99.90;;;6.47;100.00;96456.16;5077011;28;20048;-72
2022/04/22 01:19:30;;;;;;;15.75;12.77;;;7.20;99.90;;;6.35;100.00;96455.88;5078089;28;20500;-72
2022/04/22 01:21:57;;;;;;;17.65;13.32;;;7.10;99.90;;;6.40;100.00;96449.63;5078091;28;20075;-72
2022/04/22 01:24:24;;;;;;;16.58;12.68;;;7.10;99.90;;;6.30;100.00;96457.84;5077093;28;20135;-72
2022/04/22 01:26:55;;;;;;;17.23;12.45;;;7.00;99.90;;;6.33;100.00;96455.94;5076201;28;20145;-72
2022/04/22 01:29:22;;;;;;;20.42;14.30;;;7.00;99.90;;;6.24;100.00;96453.75;5081288;28;20810;-72
2022/04/22 01:31:50;;;;;;;17.67;14.15;;;7.00;99.90;;;6.22;100.00;96450.41;5079465;28;20048;-72
2022/04/22 01:34:17;;;;;;;16.90;13.45;;;7.00;99.90;;;6.20;100.00;96449.66;5077253;28;20056;-72
2022/04/22 01:36:44;;;;;;;17.63;14.50;;;6.90;99.90;;;6.19;100.00;96451.41;5078814;28;20529;-72
2022/04/22 01:39:11;;;;;;;18.80;13.93;;;6.90;99.90;;;6.14;100.00;96449.94;5081484;28;20131;-72
2022/04/22 01:41:38;;;;;;;18.35;15.15;;;6.90;99.90;;;6.11;100.00;96452.63;5079559;28;20083;-72
2022/04/22 01:44:05;;;;;;;16.48;13.77;;;6.80;99.90;;;6.06;100.00;96448.50;5084714;28;20052;-72
2022/04/22 01:46:32;;;;;;;20.73;14.85;;;6.80;99.90;;;6.02;100.00;96444.41;5081575;28;20094;-72
2022/04/22 01:49:00;;;;;;;19.88;15.02;;;6.80;99.90;;;6.06;100.00;96445.09;5083393;28;20151;-72
2022/04/22 01:51:26;;;;;;;21.48;15.05;;;6.80;99.90;;;6.07;100.00;96434.72;5080838;28;21773;-72
2022/04/22 01:53:54;;;;;;;19.15;14.50;;;6.80;99.90;;;6.08;100.00;96441.53;5081725;28;20151;-72
2022/04/22 01:56:21;;;;;;;22.13;15.35;;;6.80;99.90;;;5.99;100.00;96441.09;5079999;28;20141;-72
2022/04/22 01:58:48;;;;;;;18.98;15.38;;;6.70;99.90;;;6.00;100.00;96442.78;5082423;28;20048;-72
2022/04/22 02:01:15;;;;;;;19.20;15.98;;;6.70;99.90;;;6.04;100.00;96442.59;5083618;28;20052;-72
2022/04/22 02:03:42;;;;;;;17.88;15.27;;;6.70;99.90;;;5.90;100.00;96436.31;5081405;28;20079;-72
2022/04/22 02:06:09;;;;;;;21.33;16.77;;;6.60;99.90;;;5.84;100.00;96429.69;5081587;28;20127;-71
2022/04/22 02:08:36;;;;;;;21.35;15.70;;;6.60;99.90;;;5.83;100.00;96433.16;5083421;28;20127;-71
2022/04/22 02:11:04;;;;;;;20.08;16.13;;;6.60;99.90;;;5.79;100.00;96439.31;5066673;28;20052;-71
2022/04/22 02:13:36;;;;;;;20.63;16.77;;;6.60;99.90;;;5.80;100.00;96428.97;5080716;28;20158;-71
2022/04/22 02:16:07;;;;;;;22.80;17.83;;;6.50;99.90;;;5.75;100.00;96424.94;5080273;28;20048;-71
2022/04/22 02:18:39;;;;;;;20.95;16.65;;;6.60;99.90;;;5.69;100.00;96428.59;5080449;28;20040;-71
2022/04/22 02:21:07;;;;;;;21.35;17.13;;;6.50;99.90;;;5.72;100.00;96422.47;5080899;28;20050;-71
2022/04/22 02:23:35;;;;;;;24.23;18.35;;;6.50;99.90;;;5.65;100.00;96421.88;5079198;28;20702;-72
2022/04/22 02:26:04;;;;;;;23.70;18.27;;;6.50;99.90;;;5.59;100.00;96417.84;5075847;28;20044;-72
2022/04/22 02:28:34;;;;;;;22.80;17.90;;;6.40;99.90;;;5.59;100.00;96420.41;5079588;28;20067;-72
2022/04/22 02:31:10;;;;;;;26.02;19.08;;;6.40;99.90;;;5.49;100.00;96421.69;5082112;28;20098;-72
2022/04/22 02:33:39;;;;;;;26.95;19.15;;;6.30;99.90;;;5.47;100.00;96427.78;5082760;28;20098;-72
2022/04/22 02:36:08;;;;;;;23.52;19.25;;;6.30;99.90;;;5.47;100.00;96418.31;5074458;28;20081;-72
2022/04/22 02:38:37;;;;;;;24.20;18.98;;;6.40;99.90;;;5.47;100.00;96418.31;5082545;28;20767;-72
2022/04/22 02:46:36;;;;;;;24.63;18.88;;;6.20;99.90;;;5.37;100.00;96417.88;5081805;28;20171;-72
2022/04/22 02:49:03;;;;;;;24.85;19.90;;;6.30;99.90;;;5.35;100.00;96419.66;5077357;28;20048;-72
2022/04/22 02:51:30;;;;;;;30.80;21.27;;;6.20;99.90;;;5.33;100.00;96421.47;5078235;28;20071;-72
2022/04/22 02:53:57;;;;;;;29.23;20.63;;;6.20;99.90;;;5.34;100.00;96420.56;5077333;28;20481;-70
2022/04/22 02:56:25;;;;;;;27.55;21.20;;;6.20;99.90;;;5.35;100.00;96411.13;5079921;28;20079;-72
2022/04/22 02:58:54;;;;;;;28.75;21.08;;;6.20;99.90;;;5.35;100.00;96418.84;5076244;28;20052;-70
2022/04/22 03:01:21;;;;;;;29.63;21.10;;;6.20;99.90;;;5.30;100.00;96420.75;5079072;28;20055;-70
2022/04/22 03:03:48;;;;;;;27.77;21.75;;;6.10;99.90;;;5.23;100.00;96408.13;5085284;28;20151;-70
2022/04/22 03:06:16;;;;;;;30.05;23.00;;;6.10;99.90;;;5.19;100.00;96411.72;5078482;28;20151;-72
2022/04/22 03:08:43;;;;;;;30.52;21.70;;;6.00;99.90;;;5.14;100.00;96408.50;5078080;28;20155;-70
2022/04/22 03:11:10;;;;;;;30.67;23.23;;;6.00;99.90;;;5.15;100.00;96409.34;5083836;28;20082;-70
2022/04/22 03:13:41;;;;;;;31.17;24.10;;;6.00;99.90;;;5.17;100.00;96418.66;5083252;28;20075;-70
2022/04/22 03:16:08;;;;;;;31.73;24.80;;;6.00;99.90;;;5.17;100.00;96405.78;5082479;28;20569;-70
2022/04/22 03:18:35;;;;;;;35.13;24.58;;;6.00;99.90;;;5.19;100.00;96410.88;5083776;28;20048;-72
2022/04/22 03:21:02;;;;;;;34.17;24.85;;;6.00;99.90;;;5.15;100.00;96409.34;5083102;28;20453;-70
2022/04/22 03:23:29;;;;;;;31.83;23.73;;;6.00;99.90;;;5.15;100.00;96406.75;5080974;28;20067;-71
2022/04/22 03:25:56;;;;;;;32.72;24.90;;;6.00;99.90;;;5.21;100.00;96411.66;5081309;28;20051;-72
2022/04/22 03:28:23;;;;;;;35.40;26.33;;;6.00;99.90;;;5.26;100.00;96404.59;5080947;28;20089;-70
2022/04/22 03:30:50;;;;;;;32.22;24.90;;;6.00;99.90;;;5.26;100.00;96409.75;5078844;28;20672;-72
2022/04/22 03:33:19;;;;;;;36.13;25.75;;;6.00;99.90;;;5.18;100.00;96406.66;5074830;28;20049;-70
2022/04/22 03:35:50;;;;;;;34.88;27.33;;;6.00;99.90;;;5.16;100.00;96409.28;5078501;28;20191;-72
2022/04/22 03:38:21;;;;;;;38.75;27.38;;;5.90;99.90;;;5.21;100.00;96406.53;5081402;28;20052;-72
2022/04/22 03:40:51;;;;;;;36.97;27.73;;;5.90;99.90;;;5.13;100.00;96409.41;5077854;28;20045;-71
2022/04/22 03:43:20;;;;;;;37.55;26.67;;;5.90;99.90;;;5.09;100.00;96407.03;5080813;28;20139;-72
2022/04/22 03:45:48;;;;;;;40.70;29.42;;;5.90;99.90;;;5.03;100.00;96405.50;5078265;28;20123;-72
2022/04/22 03:48:15;;;;;;;37.13;26.45;;;5.90;99.90;;;5.03;100.00;96408.09;5076352;28;20150;-72
2022/04/22 03:50:43;;;;;;;38.78;28.42;;;5.90;99.90;;;5.02;100.00;96407.25;5077055;28;20128;-72
2022/04/22 03:53:11;;;;;;;39.67;28.35;;;5.90;99.90;;;5.01;100.00;96404.72;5080874;28;20041;-70
2022/04/22 03:55:41;;;;;;;42.30;30.67;;;5.90;99.90;;;5.07;100.00;96401.94;5077574;28;20048;-72
2022/04/22 03:58:12;;;;;;;37.97;28.48;;;5.80;99.90;;;5.01;100.00;96408.13;5078937;28;20052;-70
2022/04/22 04:00:43;;;;;;;39.38;28.50;;;5.80;99.90;;;5.02;100.00;96398.72;5060167;28;20053;-70
2022/04/22 04:03:14;;;;;;;44.78;30.35;;;5.80;99.90;;;4.99;100.00;96401.38;5079870;28;20048;-71
2022/04/22 04:05:48;;;;;;;43.00;30.30;;;5.80;99.90;;;4.94;100.00;96404.13;5075092;28;20124;-72
2022/04/22 04:08:17;;;;;;;41.55;29.70;;;5.80;99.90;;;4.89;100.00;96406.06;5076001;28;20068;-72
2022/04/22 04:16:18;;;;;;;42.47;29.42;;;5.80;99.90;;;4.92;100.00;96402.53;5082066;28;20517;-72
2022/04/22 04:18:45;;;;;;;42.33;29.60;;;5.80;99.90;;;4.87;100.00;96397.56;5083175;28;20048;-72
2022/04/22 04:24:03;;;;;;;45.58;30.23;;;5.70;99.90;;;4.81;100.00;96405.50;5078083;28;20049;-72
2022/04/22 04:26:30;;;;;;;42.83;31.40;;;5.60;99.90;;;4.74;100.00;96398.94;5082773;28;20044;-72
2022/04/22 04:28:57;;;;;;;47.72;32.40;;;5.60;99.90;;;4.84;100.00;96399.44;5077061;28;20040;-72
2022/04/22 04:31:24;;;;;;;41.45;30.55;;;5.60;99.90;;;4.74;100.00;96409.22;5078061;28;20110;-72
2022/04/22 04:33:51;;;;;;;42.47;31.42;;;5.60;99.90;;;4.72;100.00;96404.16;5078318;28;20097;-72
2022/04/22 04:36:18;;;;;;;45.45;32.72;;;5.50;99.90;;;4.70;100.00;96408.50;5082512;28;20123;-72
2022/04/22 04:38:45;;;;;;;55.03;33.80;;;5.50;99.90;;;4.74;100.00;96419.50;5078675;28;20442;-72
2022/04/22 04:41:13;;;;;;;44.08;31.52;;;5.50;99.90;;;4.75;100.00;96416.03;5079139;28;20489;-72
2022/04/22 04:43:42;;;;;;;51.00;33.35;;;5.50;99.90;;;4.79;100.00;96410.72;5078070;28;20151;-72
2022/04/22 04:46:09;;;;;;;50.65;34.03;;;5.60;99.90;;;4.76;100.00;96410.00;5079259;28;20087;-72
2022/04/22 04:48:36;;;;;;;51.60;34.55;;;5.60;99.90;;;4.78;100.00;96406.47;5068278;28;20510;-72
2022/04/22 04:51:05;;;;;;;47.45;33.45;;;5.60;99.90;;;4.81;100.00;96403.78;5078349;28;20250;-72
2022/04/22 04:53:32;;;;;;;48.83;34.05;;;5.50;99.90;;;4.82;100.00;96410.59;5079586;28;20139;-70
2022/04/22 04:56:00;;;;;;;49.92;34.88;;;5.60;99.90;;;4.81;100.00;96408.94;5078330;28;20458;-70
2022/04/22 04:58:27;;;;;;;45.80;32.88;;;5.60;99.90;;;4.76;100.00;96410.81;5076002;28;20076;-70
2022/04/22 05:00:54;;;;;;;50.15;34.85;;;5.60;99.90;;;4.84;100.00;96410.53;5077855;28;20048;-70
2022/04/22 05:03:21;;;;;;;43.47;32.35;;;5.60;99.90;;;4.85;100.00;96407.06;5079632;28;20047;-71
2022/04/22 05:05:48;;;;;;;43.75;33.30;;;5.70;99.90;;;4.91;100.00;96418.84;5077500;28;20129;-72
2022/04/22 05:08:15;;;;;;;48.88;34.33;;;5.70;99.90;;;4.84;100.00;96413.13;5080972;28;20480;-72
2022/04/22 05:10:42;;;;;;;51.83;34.13;;;5.70;99.90;;;4.93;100.00;96417.91;5079468;28;20583;-72
2022/04/22 05:13:09;;;;;;;48.22;33.75;;;5.70;99.90;;;4.97;100.00;96421.19;5091127;28;20049;-72
2022/04/22 05:15:39;;;;;;;52.45;36.20;;;5.70;99.90;;;5.05;100.00;96424.28;5080148;28;20079;-72
2022/04/22 05:18:06;;;;;;;49.75;34.67;;;5.80;99.90;;;5.07;100.00;96417.38;5084179;28;20062;-72
2022/04/22 05:20:34;;;;;;;45.17;33.45;;;5.80;99.90;;;5.16;100.00;96416.16;5080040;28;20159;-72
2022/04/22 05:23:01;;;;;;;51.70;36.25;;;5.90;99.90;;;5.16;100.00;96413.59;5081007;28;20072;-72
2022/04/22 05:25:29;;;;;;;51.40;34.05;;;5.90;99.90;;;5.22;100.00;96410.75;5081401;28;20044;-72
2022/04/22 05:27:56;;;;;;;48.13;34.28;;;6.00;99.90;;;5.24;100.00;96408.97;5081192;28;20108;-72
2022/04/22 05:33:10;;;;;;;50.20;34.63;;;6.10;99.90;;;5.38;100.00;96404.13;5079157;28;20088;-72
2022/04/22 05:35:37;;;;;;;49.50;34.88;;;6.10;99.90;;;5.40;100.00;96401.47;5080416;28;20129;-70
2022/04/22 05:38:06;;;;;;;47.00;33.58;;;6.20;99.90;;;5.52;100.00;96405.25;5081426;28;20515;-70
2022/04/22 05:40:36;;;;;;;46.78;32.95;;;6.30;99.90;;;5.51;100.00;96406.19;5082707;28;20482;-70
2022/04/22 05:43:08;;;;;;;47.15;34.47;;;6.40;99.90;;;5.63;100.00;96405.66;5068432;28;20079;-70
2022/04/22 05:45:39;;;;;;;43.55;31.40;;;6.50;99.90;;;5.67;100.00;96409.78;5084044;28;20098;-71
2022/04/22 05:48:08;;;;;;;46.13;32.75;;;6.50;99.90;;;5.58;100.00;96407.59;5081247;28;20060;-70
2022/04/22 05:50:35;;;;;;;47.13;34.17;;;6.50;99.90;;;5.63;100.00;96410.81;5084166;28;20051;-70
2022/04/22 05:53:02;;;;;;;44.65;33.65;;;6.50;99.90;;;5.72;100.00;96399.28;5084728;28;20080;-72
2022/04/22 05:55:29;;;;;;;47.60;34.42;;;6.60;99.90;;;5.77;100.00;96399.94;5069567;28;20127;-72
2022/04/22 05:57:59;;;;;;;46.45;34.30;;;6.60;99.90;;;5.88;100.00;96408.03;5084122;28;20052;-70
2022/04/22 06:00:32;;;;;;;43.53;33.20;;;6.70;99.90;;;6.06;100.00;96409.03;5082587;28;20052;-70
2022/04/22 06:03:01;;;;;;;42.03;31.13;;;6.80;99.90;;;6.23;100.00;96406.56;5081570;28;20040;-70
2022/04/22 06:05:28;;;;;;;43.88;34.10;;;7.00;99.90;;;6.44;100.00;96398.78;5081802;28;20048;-72
2022/04/22 06:10:42;;;;;;;43.10;31.85;;;7.20;99.90;;;6.49;100.00;96389.91;5082633;28;20127;-72
2022/04/22 06:13:09;;;;;;;42.13;32.58;;;7.40;99.90;;;6.54;100.00;96389.69;5082183;28;20080;-71
2022/04/22 06:15:36;;;;;;;43.45;30.95;;;7.40;99.90;;;6.62;100.00;96381.63;5083059;28;20072;-71
2022/04/22 06:18:04;;;;;;;42.17;31.98;;;7.50;99.90;;;6.63;100.00;96376.38;5084231;28;20106;-71
2022/04/22 06:20:31;;;;;;;43.38;32.05;;;7.50;99.90;;;6.74;100.00;96380.22;5080645;28;20048;-71
2022/04/22 06:22:59;;;;;;;40.58;29.95;;;7.60;99.90;;;6.70;100.00;96369.22;5078909;28;20110;-71
2022/04/22 06:25:28;;;;;;;44.25;31.60;;;7.60;99.90;;;6.81;100.00;96376.47;5079615;28;20079;-71
2022/04/22 06:27:56;;;;;;;40.97;30.30;;;7.70;99.90;;;7.02;100.00;96369.44;5080315;28;20048;-71
2022/04/22 06:30:24;;;;;;;38.35;26.48;;;7.80;99.90;;;7.05;100.00;96359.81;5064192;28;20045;-71
2022/04/22 06:32:53;;;;;;;38.45;25.13;;;7.90;99.90;;;6.99;100.00;96352.38;5070446;28;20123;-71
2022/04/22 06:35:22;;;;;;;39.47;26.50;;;7.90;99.90;;;7.12;100.00;96356.03;5077274;28;20060;-72
2022/04/22 06:37:52;;;;;;;36.60;26.63;;;7.90;99.90;;;7.15;100.00;96347.31;5079566;28;20056;-71
2022/04/22 06:45:54;;;;;;;36.88;25.85;;;8.10;99.90;;;7.48;100.00;96343.97;5076417;28;20054;-72
2022/04/22 06:48:29;;;;;;;34.90;25.50;;;8.30;99.90;;;7.68;100.00;96348.13;5077552;28;20050;-72
2022/04/22 06:51:16;;;;;;;39.40;25.95;;;8.40;99.90;;;7.97;100.00;96337.13;5084268;28;20063;-71
2022/04/22 06:53:44;;;;;;;38.70;26.63;;;8.70;99.90;;;7.79;100.00;96332.09;5079290;28;20101;-71
2022/04/22 06:56:13;;;;;;;36.63;25.10;;;8.70;99.90;;;7.84;100.00;96330.94;5077381;28;20688;-71
2022/04/22 06:58:41;;;;;;;34.55;23.27;;;8.80;99.90;;;7.96;100.00;96322.56;5083762;28;20047;-71
2022/04/22 07:01:09;;;;;;;37.70;24.10;;;8.90;99.90;;;7.99;100.00;96328.47;5075945;28;20052;-72
2022/04/22 07:03:58;;;;;;;35.35;25.20;;;8.90;99.90;;;8.01;100.00;96324.06;5079889;28;20424;-71
2022/04/22 07:06:26;;;;;;;33.50;22.63;;;9.00;99.90;;;8.20;100.00;96322.16;5077770;28;20048;-71
2022/04/22 07:08:54;;;;;;;35.17;23.27;;;9.20;99.90;;;8.34;100.00;96319.69;5084168;28;20060;-71
2022/04/22 07:11:24;;;;;;;32.75;23.13;;;9.30;99.90;;;8.28;100.00;96320.03;5079298;28;20083;-72
2022/04/22 07:13:57;;;;;;;35.50;23.85;;;9.30;99.90;;;8.11;100.00;96317.50;5081420;28;20536;-72
2022/04/22 07:16:25;;;;;;;;;;;9.20;99.90;;;8.49;100.00;96307.72;5084276;28;20147;-72
2022/04/22 07:18:54;;;;;;;32.55;23.02;;;9.30;99.90;;;8.55;100.00;96314.28;5078241;28;20456;-72
2022/04/22 07:21:25;;;;;;;31.30;22.05;;;9.40;99.90;;;8.69;100.00;96314.38;5087378;28;20541;-71
2022/04/22 07:23:58;;;;;;;31.48;21.63;;;9.60;99.90;;;9.12;100.00;96318.88;5084563;28;20430;-72
2022/04/22 07:26:26;;;;;;;33.10;23.20;;;9.80;99.90;;;8.90;100.00;96308.94;5082529;28;20067;-72
2022/04/22 07:28:57;;;;;;;31.30;22.65;;;9.90;99.90;;;8.73;100.00;96317.63;5083833;28;20105;-72
2022/04/22 07:31:30;;;;;;;32.17;23.58;;;9.80;99.90;;;8.47;100.00;96313.88;5078945;28;20506;-72
2022/04/22 07:33:57;;;;;;;;;;;9.60;99.90;;;8.44;100.00;96311.44;5079323;28;20092;-71
2022/04/22 07:36:25;;;;;;;35.03;24.40;;;9.60;99.90;;;8.26;100.00;96314.09;5077952;28;19921;-71
2022/04/22 07:38:52;;;;;;;33.25;23.13;;;9.40;99.90;;;8.19;100.00;96317.94;5081929;28;20098;-71
2022/04/22 07:41:23;;;;;;;32.42;23.92;;;9.30;99.90;;;8.11;100.00;96320.06;5077827;28;20128;-72
2022/04/22 07:46:59;;;;;;;31.70;23.27;;;9.20;99.90;;;8.67;100.00;96317.97;5020414;28;20057;-71
2022/04/22 07:49:28;;;;;;;30.90;22.48;;;9.40;99.90;;;9.04;100.00;96308.97;5072363;28;20726;-72
2022/04/22 07:51:56;;;;;;;33.60;22.52;;;9.90;99.90;;;9.23;100.00;96300.16;5078764;28;20445;-71
2022/04/22 07:54:26;;;;;;;33.90;21.17;;;10.20;99.90;;;9.30;100.00;96304.88;5079388;28;20052;-71
2022/04/22 07:56:53;;;;;;;29.10;20.55;;;10.30;99.90;;;9.27;100.00;96301.66;5078867;28;20134;-71
2022/04/22 07:59:20;;;;;;;29.88;21.00;;;10.20;99.90;;;9.35;100.00;96305.47;5079065;28;20135;-71
2022/04/22 08:01:47;;;;;;;30.30;21.40;;;10.40;99.90;;;9.23;100.00;96307.94;5068694;28;20053;-71
2022/04/22 08:04:16;;;;;;;31.55;20.83;;;10.30;99.90;;;9.15;100.00;96304.03;5075789;28;20151;-72
2022/04/22 08:06:43;;;;;;;30.85;21.23;;;10.30;99.90;;;9.51;100.00;96299.38;5076721;28;20571;-72
2022/04/22 08:09:30;;;;;;;27.75;20.73;;;10.40;99.90;;;9.80;100.00;96301.06;5081346;28;20036;-72
2022/04/22 08:11:58;;;;;;;27.98;20.92;;;10.90;99.90;;;10.20;100.00;96287.47;5083994;28;20051;-72
2022/04/22 08:14:26;;;;;;;27.60;18.70;;;11.40;99.90;;;10.90;100.00;96292.59;5077733;28;20144;-72
2022/04/22 08:16:56;;;;;;;27.85;19.27;;;11.80;99.90;;;10.31;100.00;96281.63;5075108;28;20119;-72
2022/04/22 08:19:23;;;;;;;24.13;18.20;;;11.60;99.90;;;10.22;100.00;96285.63;5076101;28;20187;-71
2022/04/22 08:21:50;;;;;;;29.25;20.05;;;11.50;99.90;;;10.18;100.00;96282.38;5074500;28;20087;-71
2022/04/22 08:24:18;;;;;;;25.85;18.17;;;11.40;99.90;;;10.51;100.00;96285.56;5075773;28;20131;-71
2022/04/22 08:26:46;;;;;;;27.15;20.08;;;11.60;99.90;;;10.19;100.00;96281.44;5079548;28;20150;-72
2022/04/22 08:29:19;;;;;;;25.50;18.98;;;11.50;99.90;;;10.30;100.00;96272.19;5077402;28;20043;-72
2022/04/22 08:31:46;;;;;;;25.92;18.27;;;11.70;99.90;;;10.20;100.00;96274.50;5079705;28;20056;-72
2022/04/22 08:34:13;;;;;;;26.33;19.50;;;11.60;99.90;;;10.13;100.00;96276.66;5076702;28;20130;-71
2022/04/22 08:36:40;;;;;;;24.95;18.75;;;11.40;99.90;;;10.31;100.00;96272.13;5078263;28;20503;-72
2022/04/22 08:39:07;;;;;;;25.40;18.40;;;11.50;99.90;;;10.80;100.00;96266.38;5080536;28;20052;-72
2022/04/22 08:41:35;;;;;;;26.95;19.05;;;11.60;99.90;;;10.84;100.00;96272.22;5082385;28;20124;-72
2022/04/22 08:44:02;;;;;;;25.95;18.02;;;11.70;99.90;;;11.03;100.00;96272.69;5083322;28;20502;-72
2022/04/22 08:52:04;;;;;;;25.33;20.27;;;12.80;99.90;;;12.67;100.00;96259.81;5086015;28;20048;-72
2022/04/22 08:54:36;;;;;;;24.75;20.73;;;13.40;99.90;;;12.68;100.00;96246.69;5087601;28;20583;-72
2022/04/22 08:57:03;;;;;;;21.20;16.08;;;13.70;99.90;;;12.90;100.00;96250.31;5083479;28;20497;-72
2022/04/22 08:59:31;;;;;;;23.83;18.02;;;13.70;99.90;;;12.86;100.00;96248.88;5086231;28;20143;-72
2022/04/22 09:01:59;;;;;;;20.33;16.27;;;13.90;99.90;;;13.21;100.00;96238.47;5088151;28;20056;-72
2022/04/22 09:04:26;;;;;;;19.75;16.02;;;14.00;99.90;;;13.58;100.00;96231.34;5082848;28;20164;-72
2022/04/22 09:06:54;;;;;;;18.45;15.38;;;14.20;99.90;;;13.88;100.00;96232.56;5083122;28;20048;-72
2022/04/22 09:09:23;;;;;;;22.05;16.85;;;14.30;99.90;;;13.29;100.00;96225.72;5084305;28;20135;-70
2022/04/22 09:11:52;;;;;;;17.92;15.10;;;14.20;99.90;;;13.02;100.00;96238.16;5082056;28;20130;-70
2022/04/22 09:14:23;;;;;;;20.15;15.88;;;13.80;99.90;;;13.42;100.00;96230.84;5085574;28;20131;-70
2022/04/22 09:16:51;;;;;;;18.38;16.38;;;13.90;99.90;;;13.77;100.00;96227.31;5083667;28;20123;-72
2022/04/22 09:19:18;;;;;;;21.35;15.48;;;14.20;99.90;;;13.63;100.00;96233.59;5085453;28;20048;-71
2022/04/22 09:21:56;;;;;;;19.25;15.32;;;14.30;99.90;;;13.58;100.00;96223.53;5081600;28;20240;-71
2022/04/22 09:24:24;;;;;;;18.98;14.95;;;14.60;99.90;;;14.31;100.00;96220.53;5083207;28;20076;-71
2022/04/22 09:27:08;;;;;;;16.85;14.10;;;14.80;99.90;;;14.29;100.00;96218.03;5084945;28;20077;-71
2022/04/22 09:29:56;;;;;;;16.50;13.98;;;14.80;99.90;;;14.24;100.00;96212.38;5082312;28;20051;-71
2022/04/22 09:32:28;;;;;;;20.10;14.88;;;14.80;99.90;;;14.37;100.00;96207.84;5082722;28;20048;-72
2022/04/22 09:35:12;;;;;;;17.55;13.13;;;14.70;99.90;;;14.42;100.00;96202.25;5082327;28;20075;-71
2022/04/22 09:43:45;;;;;;;16.55;12.93;;;15.30;99.90;;;14.81;100.00;96195.59;5082562;28;20127;-71
2022/04/22 09:46:32;;;;;;;16.95;12.95;;;15.20;99.90;;;15.07;100.00;96187.41;5079022;28;20154;-71
2022/04/22 09:49:00;;;;;;;16.65;12.25;;;15.30;99.90;;;14.95;100.00;96196.25;5083834;28;20068;-71
2022/04/22 09:51:31;;;;;;;16.92;13.25;;;15.60;99.90;;;15.27;100.00;96186.56;5077651;28;20084;-71
2022/04/22 09:54:10;;;;;;;17.37;12.67;;;16.00;99.90;;;16.12;100.00;96173.34;5075576;28;20044;-71
2022/04/22 09:56:38;;;;;;;15.00;12.45;;;16.20;99.90;;;15.59;100.00;96188.25;5075250;28;20490;-71
2022/04/22 09:59:26;;;;;;;17.73;13.25;;;16.60;99.90;;;15.19;100.00;96189.00;5081758;28;20056;-71
2022/04/22 10:01:54;;;;;;;14.55;11.95;;;15.80;99.60;;;15.73;100.00;96171.41;5083543;28;20047;-71
2022/04/22 10:04:31;;;;;;;14.30;12.25;;;16.00;99.90;;;15.92;100.00;96172.44;5082650;28;20067;-71
2022/04/22 10:07:02;;;;;;;15.23;11.82;;;16.00;99.90;;;16.25;100.00;96161.66;5082880;28;20053;-71
2022/04/22 10:09:32;;;;;;;12.00;9.77;;;16.70;98.60;;;16.37;100.00;96148.44;5081666;28;20067;-71
2022/04/22 10:12:06;;;;;;;12.48;10.63;;;16.60;97.80;;;16.41;100.00;96162.91;5084431;28;20048;-71
2022/04/22 10:14:38;;;;;;;16.25;12.10;;;16.80;98.30;;;15.77;100.00;96154.50;5072444;28;20048;-71
2022/04/22 10:17:06;;;;;;;12.77;10.35;;;16.60;98.20;;;16.75;100.00;96162.53;5083501;28;20067;-71
2022/04/22 10:19:34;;;;;;;20.17;11.77;;;16.90;96.90;;;16.59;100.00;96149.97;5081242;28;20586;-71
2022/04/22 10:22:04;;;;;;;12.18;10.50;;;16.90;97.00;;;16.52;100.00;96139.22;5081199;28;20417;-71
2022/04/22 10:24:32;;;;;;;10.77;9.57;;;16.70;97.10;;;17.40;100.00;96136.50;5079170;28;20052;-71
2022/04/22 10:27:04;;;;;;;12.40;10.75;;;17.10;97.10;;;17.41;100.00;96132.94;5081256;28;20145;-71
2022/04/22 10:29:52;;;;;;;;;;;17.30;98.00;;;16.57;100.00;96139.63;5084627;28;20648;-70
2022/04/22 10:32:20;;;;;;;11.55;9.52;;;17.70;97.10;;;17.46;100.00;96130.69;5082831;28;20373;-71
2022/04/22 10:34:57;;;;;;;11.40;10.20;;;17.90;97.60;;;17.44;100.00;96127.38;5079445;28;20045;-70
2022/04/22 10:37:31;;;;;;;11.32;9.18;;;17.80;96.00;;;17.78;100.00;96127.66;5082997;28;20081;-70
2022/04/22 10:39:58;;;;;;;11.00;9.23;;;17.80;96.40;;;17.59;100.00;96112.84;5079296;28;20466;-71
2022/04/22 10:42:38;;;;;;;11.40;8.82;;;17.70;95.10;;;17.37;100.00;96115.81;5078712;28;21120;-71
2022/04/22 10:47:55;;;;;;;12.13;10.32;;;17.80;93.40;;;16.63;100.00;96119.94;5084488;28;20114;-71
2022/04/22 10:50:33;;;;;;;12.43;10.70;;;17.90;93.10;;;16.89;100.00;96110.53;5081420;28;20159;-71
2022/04/22 10:53:09;;;;;;;13.23;10.50;;;17.50;94.10;;;16.82;100.00;96108.63;5082214;28;20079;-71
2022/04/22 10:55:41;;;;;;;12.13;9.88;;;17.40;93.70;;;17.20;100.00;96101.66;5079525;28;20056;-71
2022/04/22 10:58:30;;;;;;;11.02;8.90;;;17.40;94.10;;;17.53;100.00;96095.03;5082025;28;20048;-71
2022/04/22 11:00:57;;;;;;;13.02;9.32;;;18.00;93.60;;;17.70;100.00;96098.72;5086145;28;20578;-71
2022/04/22 11:03:36;;;;;;;14.52;8.55;;;18.10;93.50;;;18.45;100.00;96093.28;5084315;28;20129;-70
2022/04/22 11:06:07;;;;;;;11.85;9.18;;;18.50;93.30;;;18.10;100.00;96090.47;5080397;28;20041;-71
2022/04/22 11:08:39;;;;;;;10.10;8.32;;;18.30;92.70;;;18.77;100.00;96088.34;5081440;28;20056;-71
2022/04/22 11:11:15;;;;;;;12.35;8.90;;;18.60;93.40;;;18.49;100.00;96086.75;5077995;28;20052;-71